createdAt,value
2018-07-15T00:00:06.898Z,10.03
2018-07-15T00:02:35.601Z,8.80
2018-07-15T00:05:04.536Z,9.75
2018-07-15T00:07:33.253Z,9.65
2018-07-15T00:10:02.004Z,9.70
2018-07-15T00:12:30.747Z,8.70
2018-07-15T00:14:59.092Z,9.23
2018-07-15T00:17:27.822Z,9.80
2018-07-15T00:19:56.556Z,10.68
2018-07-15T00:22:25.276Z,10.88
2018-07-15T00:24:53.985Z,10.05
2018-07-15T00:27:22.710Z,10.13
2018-07-15T00:29:51.429Z,9.90
2018-07-15T00:32:20.124Z,10.00
2018-07-15T00:34:48.834Z,10.35
2018-07-15T00:37:17.532Z,10.10
2018-07-15T00:39:46.254Z,10.85
2018-07-15T00:42:14.977Z,10.00
2018-07-15T00:44:43.688Z,10.32
2018-07-15T00:47:12.394Z,10.80
2018-07-15T00:49:41.117Z,10.95
2018-07-15T00:52:09.845Z,9.53
2018-07-15T00:54:38.564Z,9.98
2018-07-15T00:57:07.340Z,9.48
2018-07-15T00:59:35.702Z,10.20
2018-07-15T01:02:04.494Z,11.00
2018-07-15T01:04:33.241Z,10.75
2018-07-15T01:07:02.009Z,11.50
2018-07-15T01:09:30.734Z,11.48
2018-07-15T01:11:59.497Z,10.20
2018-07-15T01:14:28.203Z,10.82
2018-07-15T01:16:56.921Z,11.65
2018-07-15T01:19:25.691Z,10.90
2018-07-15T01:21:54.440Z,12.05
2018-07-15T01:24:23.175Z,10.98
2018-07-15T01:26:51.989Z,11.05
2018-07-15T01:29:20.712Z,12.03
2018-07-15T01:31:49.421Z,11.45
2018-07-15T01:34:18.157Z,11.28
2018-07-15T01:36:46.849Z,9.33
2018-07-15T01:39:15.527Z,10.60
2018-07-15T01:41:44.244Z,10.70
2018-07-15T01:44:12.950Z,11.65
2018-07-15T01:46:41.692Z,10.40
2018-07-15T01:49:10.417Z,11.40
2018-07-15T01:51:39.113Z,10.95
2018-07-15T01:54:07.856Z,11.00
2018-07-15T01:56:36.581Z,10.85
2018-07-15T01:59:05.469Z,10.98
2018-07-15T02:01:34.205Z,11.70
2018-07-15T02:04:02.930Z,11.83
2018-07-15T02:06:31.635Z,12.28
2018-07-15T02:09:00.349Z,12.07
2018-07-15T02:11:29.094Z,12.10
2018-07-15T02:13:57.822Z,11.55
2018-07-15T02:16:26.704Z,11.10
2018-07-15T02:18:55.524Z,12.43
2018-07-15T02:21:24.268Z,11.85
2018-07-15T02:23:53.030Z,12.00
2018-07-15T02:26:21.800Z,11.78
2018-07-15T02:28:50.662Z,11.53
2018-07-15T02:31:19.343Z,11.25
2018-07-15T02:33:48.072Z,11.48
2018-07-15T02:36:16.797Z,11.45
2018-07-15T02:38:45.484Z,12.20
2018-07-15T02:41:14.237Z,11.95
2018-07-15T02:43:43.004Z,11.15
2018-07-15T02:46:11.769Z,11.55
2018-07-15T02:48:40.495Z,12.50
2018-07-15T02:51:09.225Z,12.65
2018-07-15T02:53:37.960Z,11.70
2018-07-15T02:56:06.816Z,10.98
2018-07-15T02:58:35.509Z,12.85
2018-07-15T03:01:04.266Z,12.40
2018-07-15T03:03:32.972Z,10.10
2018-07-15T03:06:01.657Z,11.50
2018-07-15T03:08:30.373Z,12.30
2018-07-15T03:10:59.104Z,10.50
2018-07-15T03:13:27.883Z,11.05
2018-07-15T03:15:56.610Z,11.53
2018-07-15T03:18:25.548Z,12.93
2018-07-15T03:20:54.316Z,12.40
2018-07-15T03:23:23.007Z,12.37
2018-07-15T03:25:51.746Z,12.15
2018-07-15T03:28:20.461Z,12.18
2018-07-15T03:30:49.197Z,11.63
2018-07-15T03:33:17.923Z,12.68
2018-07-15T03:35:46.612Z,14.00
2018-07-15T03:38:15.360Z,13.08
2018-07-15T03:40:44.108Z,12.40
2018-07-15T03:43:12.828Z,11.53
2018-07-15T03:45:41.532Z,14.33
2018-07-15T03:48:10.293Z,11.53
2018-07-15T03:50:39.016Z,13.60
2018-07-15T03:53:07.737Z,12.65
2018-07-15T03:55:36.487Z,13.32
2018-07-15T03:58:05.371Z,12.25
2018-07-15T04:00:34.113Z,14.00
2018-07-15T04:03:02.890Z,14.28
2018-07-15T04:05:31.633Z,13.90
2018-07-15T04:07:59.964Z,14.20
2018-07-15T04:10:28.692Z,13.70
2018-07-15T04:12:57.381Z,12.53
2018-07-15T04:15:26.120Z,13.15
2018-07-15T04:18:11.397Z,13.95
2018-07-15T04:20:40.121Z,12.47
2018-07-15T04:23:08.889Z,12.07
2018-07-15T04:25:37.634Z,12.82
2018-07-15T04:28:06.372Z,11.93
2018-07-15T04:30:35.064Z,12.13
2018-07-15T04:33:03.779Z,11.18
2018-07-15T04:35:32.474Z,12.10
2018-07-15T04:38:01.245Z,12.90
2018-07-15T04:40:29.979Z,11.97
2018-07-15T04:42:58.722Z,12.58
2018-07-15T04:45:27.455Z,11.70
2018-07-15T04:47:56.160Z,12.78
2018-07-15T04:50:24.896Z,13.50
2018-07-15T04:52:53.613Z,11.05
2018-07-15T04:55:22.328Z,13.70
2018-07-15T04:57:50.988Z,12.37
2018-07-15T05:00:19.653Z,11.70
2018-07-15T05:02:48.361Z,11.15
2018-07-15T05:05:17.041Z,11.13
2018-07-15T05:07:45.765Z,10.70
2018-07-15T05:10:14.476Z,10.90
2018-07-15T05:12:43.276Z,9.60
2018-07-15T05:15:12.084Z,10.40
2018-07-15T05:17:40.805Z,10.00
2018-07-15T05:20:09.584Z,11.10
2018-07-15T05:22:38.261Z,10.70
2018-07-15T05:25:07.085Z,11.17
2018-07-15T05:27:35.740Z,9.67
2018-07-15T05:30:05.150Z,9.63
2018-07-15T05:32:33.888Z,8.93
2018-07-15T05:35:02.790Z,10.73
2018-07-15T05:37:31.449Z,9.10
2018-07-15T05:40:01.198Z,9.93
2018-07-15T05:42:29.906Z,9.43
2018-07-15T05:44:58.642Z,10.67
2018-07-15T05:47:27.403Z,9.90
2018-07-15T05:49:56.201Z,10.37
2018-07-15T05:52:25.044Z,10.77
2018-07-15T05:54:53.753Z,10.23
2018-07-15T05:57:22.458Z,10.07
2018-07-15T05:59:51.264Z,9.27
2018-07-15T06:02:19.949Z,9.27
2018-07-15T06:04:48.623Z,9.90
2018-07-15T06:07:17.329Z,9.90
2018-07-15T06:09:46.144Z,9.47
2018-07-15T06:12:14.873Z,8.37
2018-07-15T06:14:43.528Z,8.43
2018-07-15T06:17:12.537Z,10.27
2018-07-15T06:19:41.168Z,9.03
2018-07-15T06:22:09.851Z,8.03
2018-07-15T06:24:38.554Z,7.50
2018-07-15T06:27:07.280Z,7.77
2018-07-15T06:29:36.011Z,7.30
2018-07-15T06:32:04.787Z,7.13
2018-07-15T06:34:33.480Z,7.70
2018-07-15T06:37:02.370Z,7.53
2018-07-15T06:39:31.085Z,6.30
2018-07-15T06:41:59.882Z,7.00
2018-07-15T06:44:28.598Z,6.80
2018-07-15T06:46:57.442Z,7.20
2018-07-15T06:49:26.102Z,6.23
2018-07-15T06:51:54.824Z,5.73
2018-07-15T06:54:23.577Z,6.63
2018-07-15T06:56:52.275Z,6.80
2018-07-15T06:59:21.048Z,6.10
2018-07-15T07:01:50.095Z,6.60
2018-07-15T07:04:18.790Z,6.53
2018-07-15T07:06:47.523Z,6.30
2018-07-15T07:09:16.734Z,6.80
2018-07-15T07:11:45.413Z,6.40
2018-07-15T07:14:14.180Z,5.73
2018-07-15T07:16:42.863Z,5.20
2018-07-15T07:19:11.650Z,6.60
2018-07-15T07:21:40.393Z,5.80
2018-07-15T07:24:09.091Z,6.10
2018-07-15T07:26:37.809Z,6.60
2018-07-15T07:29:06.528Z,5.60
2018-07-15T07:31:35.541Z,5.87
2018-07-15T07:34:04.252Z,6.20
2018-07-15T07:36:33.231Z,6.20
2018-07-15T07:39:02.103Z,5.90
2018-07-15T07:41:30.801Z,5.60
2018-07-15T07:43:59.481Z,5.03
2018-07-15T07:46:28.173Z,4.80
2018-07-15T07:48:56.816Z,6.10
2018-07-15T07:51:25.495Z,6.00
2018-07-15T07:53:54.225Z,5.13
2018-07-15T07:56:22.967Z,5.00
2018-07-15T07:58:51.712Z,5.23
2018-07-15T08:01:20.527Z,6.10
2018-07-15T08:03:49.339Z,5.40
2018-07-15T08:06:18.339Z,5.87
2018-07-15T08:08:47.014Z,5.77
2018-07-15T08:11:15.797Z,5.90
2018-07-15T08:13:44.670Z,5.03
2018-07-15T08:16:13.553Z,5.27
2018-07-15T08:18:42.301Z,6.30
2018-07-15T08:21:11.001Z,7.50
2018-07-15T08:23:39.864Z,6.47
2018-07-15T08:26:08.848Z,5.97
2018-07-15T08:28:37.562Z,5.87
2018-07-15T08:31:10.532Z,6.40
2018-07-15T08:33:39.516Z,5.20
2018-07-15T08:36:08.497Z,6.70
2018-07-15T08:38:37.196Z,7.63
2018-07-15T08:41:06.286Z,6.00
2018-07-15T08:43:35.110Z,6.50
2018-07-15T08:46:03.931Z,4.87
2018-07-15T08:48:32.949Z,5.53
2018-07-15T08:51:01.706Z,4.23
2018-07-15T08:53:30.819Z,5.50
2018-07-15T08:55:59.546Z,6.10
2018-07-15T08:58:28.278Z,6.80
2018-07-15T09:00:57.012Z,6.30
2018-07-15T09:03:25.805Z,6.87
2018-07-15T09:05:54.555Z,5.60
2018-07-15T09:08:24.012Z,6.50
2018-07-15T09:10:52.694Z,4.63
2018-07-15T09:13:21.023Z,6.17
2018-07-15T09:15:49.730Z,5.70
2018-07-15T09:18:18.446Z,6.70
2018-07-15T09:20:47.140Z,5.80
2018-07-15T09:23:15.902Z,5.70
2018-07-15T09:25:44.592Z,5.70
2018-07-15T09:28:13.262Z,5.63
2018-07-15T09:30:41.973Z,6.10
2018-07-15T09:33:10.699Z,7.80
2018-07-15T09:35:39.567Z,5.87
2018-07-15T09:38:08.452Z,6.40
2018-07-15T09:40:37.217Z,6.63
2018-07-15T09:43:06.030Z,7.10
2018-07-15T09:45:35.282Z,5.33
2018-07-15T09:48:04.167Z,7.30
2018-07-15T09:50:32.896Z,5.63
2018-07-15T09:53:01.593Z,6.10
2018-07-15T09:55:30.291Z,6.30
2018-07-15T09:57:59.233Z,6.47
2018-07-15T10:00:33.186Z,6.47
2018-07-15T10:03:02.285Z,6.10
2018-07-15T10:05:31.319Z,7.10
2018-07-15T10:08:00.266Z,7.57
2018-07-15T10:10:29.293Z,6.90
2018-07-15T10:12:57.993Z,6.97
2018-07-15T10:15:26.708Z,7.17
2018-07-15T10:17:55.396Z,7.80
2018-07-15T10:20:24.127Z,8.77
2018-07-15T10:22:52.866Z,9.10
2018-07-15T10:25:22.039Z,7.93
2018-07-15T10:27:50.758Z,6.40
2018-07-15T10:30:19.490Z,7.60
2018-07-15T10:32:48.185Z,7.30
2018-07-15T10:35:16.920Z,7.40
2018-07-15T10:37:45.697Z,6.70
2018-07-15T10:40:14.493Z,6.07
2018-07-15T10:42:43.331Z,6.27
2018-07-15T10:45:12.293Z,6.70
2018-07-15T10:47:40.968Z,6.30
2018-07-15T10:50:09.965Z,6.60
2018-07-15T10:52:39.175Z,7.90
2018-07-15T10:55:07.923Z,7.97
2018-07-15T10:57:44.774Z,6.13
2018-07-15T11:00:14.542Z,6.30
2018-07-15T11:02:44.047Z,7.13
2018-07-15T11:05:17.540Z,7.20
2018-07-15T11:07:47.741Z,6.67
2018-07-15T11:10:32.645Z,7.37
2018-07-15T11:13:06.548Z,6.70
2018-07-15T11:15:39.575Z,6.50
2018-07-15T11:18:08.221Z,5.77
2018-07-15T11:20:37.919Z,5.70
2018-07-15T11:23:07.068Z,6.70
2018-07-15T11:25:36.249Z,6.67
2018-07-15T11:28:05.620Z,6.13
2018-07-15T11:30:36.454Z,5.60
2018-07-15T11:33:05.674Z,7.20
2018-07-15T11:35:37.135Z,5.07
2018-07-15T11:38:06.396Z,5.93
2018-07-15T11:40:37.568Z,7.20
2018-07-15T11:43:19.935Z,5.93
2018-07-15T11:45:49.009Z,6.20
2018-07-15T11:48:21.771Z,5.80
2018-07-15T11:50:51.307Z,6.13
2018-07-15T11:53:20.328Z,6.63
2018-07-15T11:55:49.325Z,6.40
2018-07-15T11:58:19.570Z,6.43
2018-07-15T12:01:04.555Z,6.33
2018-07-15T12:03:34.083Z,7.50
2018-07-15T12:06:03.516Z,6.87
2018-07-15T12:08:32.826Z,6.83
2018-07-15T12:11:01.986Z,5.87
2018-07-15T12:13:49.273Z,5.50
2018-07-15T12:16:19.243Z,5.60
2018-07-15T12:18:48.470Z,5.60
2018-07-15T12:21:17.710Z,5.97
2018-07-15T12:23:46.982Z,5.93
2018-07-15T12:26:16.249Z,6.03
2018-07-15T12:29:01.993Z,5.47
